Time;durP1;ratioP1;P1;durP2;ratioP2;P2;SDS_P1;SDS_P2;PMS_P1;PMS_P2;Temp;Humidity;BMP_temperature;BMP_pressure;BME280_temperature;BME280_humidity;BME280_pressure;Samples;Min_cycle;Max_cycle;Signal;HPM_P1;HPM_P2
2021/12/15 00:01:38;;;;;;;12.23;10.82;;;;;;;18.63;41.00;102161.56;5054836;28;20068;-75
2021/12/15 00:04:08;;;;;;;13.23;10.82;;;;;;;18.63;41.04;102151.69;5054858;28;20049;-75
2021/12/15 00:06:36;;;;;;;16.30;11.15;;;;;;;18.64;40.73;102149.91;5054766;28;20045;-76
2021/12/15 00:09:08;;;;;;;12.70;10.40;;;;;;;18.64;41.26;102158.81;5054867;28;20044;-76
2021/12/15 00:11:37;;;;;;;14.13;11.50;;;;;;;18.64;40.99;102148.09;5070327;28;20045;-75
2021/12/15 00:14:12;;;;;;;13.25;10.07;;;;;;;18.65;40.83;102151.63;5054763;28;20052;-75
2021/12/15 00:16:40;;;;;;;14.85;11.23;;;;;;;18.65;40.79;102143.59;5054884;28;20045;-75
2021/12/15 00:19:07;;;;;;;13.10;10.88;;;;;;;18.65;40.43;102147.13;5054897;28;20052;-75
2021/12/15 00:21:36;;;;;;;16.08;11.60;;;;;;;18.65;40.41;102155.16;5054085;28;20040;-75
2021/12/15 00:24:05;;;;;;;12.40;10.82;;;;;;;18.65;40.37;102151.63;5054012;28;20049;-75
2021/12/15 00:26:33;;;;;;;12.25;10.93;;;;;;;18.66;40.40;102148.84;5070055;28;20437;-75
2021/12/15 00:29:02;;;;;;;13.45;10.55;;;;;;;18.66;40.39;102148.84;5054322;28;20052;-75
2021/12/15 00:31:32;;;;;;;13.93;11.70;;;;;;;18.65;40.21;102152.50;5054202;28;20045;-75
2021/12/15 00:34:01;;;;;;;13.77;11.25;;;;;;;18.67;40.20;102152.38;5054625;28;20386;-75
2021/12/15 00:36:29;;;;;;;12.85;11.25;;;;;;;18.67;40.05;102141.66;5054381;28;20048;-75
2021/12/15 00:38:56;;;;;;;13.60;11.07;;;;;;;18.66;40.08;102143.47;5054343;28;20049;-75
2021/12/15 00:41:24;;;;;;;12.38;10.52;;;;;;;18.67;40.02;102141.66;5052857;28;20071;-75
2021/12/15 00:43:52;;;;;;;12.10;10.85;;;;;;;18.66;40.08;102153.34;5052644;28;20056;-75
2021/12/15 00:46:20;;;;;;;13.77;10.88;;;;;;;18.67;39.95;102157.75;5052657;28;20052;-75
2021/12/15 00:48:49;;;;;;;12.38;10.50;;;;;;;18.68;39.61;102155.00;5053736;28;20052;-75
2021/12/15 00:51:17;;;;;;;13.10;10.57;;;;;;;18.68;39.95;102155.00;5052363;28;20057;-75
2021/12/15 00:53:45;;;;;;;14.77;10.65;;;;;;;18.67;39.92;102153.25;5053632;28;20052;-75
2021/12/15 00:56:12;;;;;;;12.10;10.65;;;;;;;18.66;40.03;102156.88;5053860;28;20056;-75
2021/12/15 00:58:41;;;;;;;11.30;10.10;;;;;;;18.68;40.02;102168.41;5054020;28;20052;-75
2021/12/15 01:01:10;;;;;;;11.57;10.30;;;;;;;18.68;40.03;102165.72;5053921;28;20370;-76
2021/12/15 01:03:38;;;;;;;11.98;10.20;;;;;;;18.68;39.90;102164.84;5053770;28;20052;-75
2021/12/15 01:06:11;;;;;;;12.40;10.93;;;;;;;18.67;39.88;102172.00;5052496;28;20409;-75
2021/12/15 01:08:43;;;;;;;12.10;10.68;;;;;;;18.69;39.71;102177.31;5052935;28;20068;-75
2021/12/15 01:22:39;;;;;;;15.68;10.35;;;;;;;18.67;39.83;102172.00;5043556;28;20052;-75
2021/12/15 01:25:22;;;;;;;15.13;10.73;;;;;;;18.67;39.93;102169.34;5053526;28;20044;-75
2021/12/15 01:27:50;;;;;;;11.48;10.38;;;;;;;18.68;39.93;102167.53;5052065;28;20350;-75
2021/12/15 01:30:22;;;;;;;12.32;9.55;;;;;;;18.67;39.97;102169.34;5053552;28;20511;-75
2021/12/15 01:32:51;;;;;;;13.43;9.80;;;;;;;18.67;39.94;102168.47;5052212;28;20480;-75
2021/12/15 01:35:19;;;;;;;12.25;10.02;;;;;;;18.68;40.00;102181.81;5053207;28;20053;-75
2021/12/15 01:37:48;;;;;;;12.18;10.27;;;;;;;18.67;39.96;102190.78;5051993;28;20488;-75
2021/12/15 01:40:30;;;;;;;11.40;10.25;;;;;;;18.67;39.82;102188.09;5052332;28;20045;-75
2021/12/15 01:42:58;;;;;;;10.57;9.52;;;;;;;18.66;40.05;102181.03;5051686;28;20052;-73
2021/12/15 01:48:14;;;;;;;13.52;9.57;;;;;;;18.66;40.36;102186.38;5053368;28;20049;-73
2021/12/15 01:50:43;;;;;;;11.63;10.23;;;;;;;18.66;40.36;102183.72;5053203;28;20044;-72
2021/12/15 01:53:11;;;;;;;10.88;9.80;;;;;;;18.67;40.42;102180.06;5052318;28;20358;-73
2021/12/15 01:55:39;;;;;;;13.10;10.65;;;;;;;18.67;40.38;102184.56;5052215;28;20045;-72
2021/12/15 01:58:06;;;;;;;10.43;9.43;;;;;;;18.66;40.63;102183.72;5051995;28;20053;-72
2021/12/15 02:00:45;;;;;;;10.63;9.13;;;;;;;18.66;40.27;102182.84;5051828;28;20060;-73
2021/12/15 02:03:13;;;;;;;11.02;9.93;;;;;;;18.66;40.27;102175.66;5052986;28;20041;-73
2021/12/15 02:05:41;;;;;;;11.73;10.02;;;;;;;18.65;40.28;102182.00;5051648;28;20052;-73
2021/12/15 02:08:09;;;;;;;11.73;10.27;;;;;;;18.65;40.39;102182.00;5085852;28;20059;-73
2021/12/15 02:10:39;;;;;;;10.70;9.60;;;;;;;18.65;40.46;102182.00;5052966;28;20049;-73
2021/12/15 02:13:11;;;;;;;10.98;9.88;;;;;;;18.66;40.29;102182.84;5052978;28;20060;-73
2021/12/15 02:15:52;;;;;;;12.15;10.38;;;;;;;18.65;40.35;102175.78;5051914;28;20059;-73
2021/12/15 02:18:25;;;;;;;11.10;10.00;;;;;;;18.65;40.40;102187.34;5052243;28;20053;-73
2021/12/15 02:21:01;;;;;;;13.68;10.23;;;;;;;18.66;40.33;102185.53;5069010;28;20048;-73
2021/12/15 02:23:36;;;;;;;10.18;9.18;;;;;;;18.66;40.26;102188.22;5051827;28;20045;-73
2021/12/15 02:26:10;;;;;;;10.50;9.23;;;;;;;18.65;40.46;102182.00;5052700;28;20373;-73
2021/12/15 02:28:39;;;;;;;11.73;9.73;;;;;;;18.64;40.32;102188.31;5052894;28;20060;-73
2021/12/15 02:31:32;;;;;;;13.50;10.48;;;;;;;18.65;40.25;102186.50;5052944;28;20056;-73
2021/12/15 02:39:16;;;;;;;11.93;10.43;;;;;;;18.63;40.15;102178.53;5085130;28;20049;-73
2021/12/15 02:41:45;;;;;;;11.77;10.57;;;;;;;18.63;39.97;102173.16;5051453;28;20056;-73
2021/12/15 02:44:17;;;;;;;12.02;10.70;;;;;;;18.63;39.85;102181.22;5051578;28;20049;-73
2021/12/15 02:46:46;;;;;;;12.70;9.90;;;;;;;18.63;39.91;102177.66;5055128;28;20052;-73
2021/12/15 02:49:16;;;;;;;10.80;9.70;;;;;;;18.62;39.91;102179.50;5056439;28;20048;-73
2021/12/15 02:51:47;;;;;;;11.38;9.88;;;;;;;18.63;39.89;102181.22;5056228;28;20112;-73
2021/12/15 02:54:16;;;;;;;16.30;10.23;;;;;;;18.63;39.92;102188.41;5056194;28;20045;-74
2021/12/15 02:56:46;;;;;;;11.07;9.98;;;;;;;18.63;40.10;102185.72;5056168;28;20045;-74
2021/12/15 02:59:16;;;;;;;11.25;10.05;;;;;;;18.63;39.85;102186.56;5055833;28;20052;-73
2021/12/15 03:07:01;;;;;;;10.75;9.35;;;;;;;18.62;39.82;102178.63;5056312;28;20049;-73
2021/12/15 03:17:56;;;;;;;;;;;;;;;18.61;40.18;102193.88;5054224;28;20056;-73
2021/12/15 03:20:27;;;;;;;11.30;9.40;;;;;;;18.62;40.04;102197.41;5053689;28;19921;-73
2021/12/15 03:22:56;;;;;;;10.63;9.70;;;;;;;18.60;40.02;102199.34;5036769;28;20041;-74
2021/12/15 03:25:26;;;;;;;11.40;9.73;;;;;;;18.60;40.18;102208.25;5053691;28;20045;-73
2021/12/15 03:36:08;;;;;;;9.90;8.80;;;;;;;18.58;40.13;102206.59;5053689;28;20063;-73
2021/12/15 03:38:36;;;;;;;10.55;9.45;;;;;;;18.58;40.25;102204.78;5053446;28;20152;-73
2021/12/15 03:41:06;;;;;;;9.38;8.43;;;;;;;18.58;39.96;102206.59;5053695;28;20053;-73
2021/12/15 03:43:35;;;;;;;11.43;9.20;;;;;;;18.59;40.04;102211.84;5053241;28;20064;-73
2021/12/15 03:46:13;;;;;;;9.93;8.93;;;;;;;18.58;40.11;102218.19;5053011;28;20052;-73
2021/12/15 03:48:44;;;;;;;10.50;9.38;;;;;;;18.59;39.96;102219.03;5053786;28;20507;-74
2021/12/15 03:51:13;;;;;;;10.68;9.23;;;;;;;18.58;39.99;102222.69;5055192;28;20049;-73
2021/12/15 03:53:43;;;;;;;10.63;9.18;;;;;;;18.58;39.80;102222.69;5054181;28;20048;-73
2021/12/15 03:56:13;;;;;;;10.43;9.32;;;;;;;18.57;39.91;102232.56;5054931;28;20049;-73
2021/12/15 03:58:41;;;;;;;10.18;8.57;;;;;;;18.57;40.02;102232.56;5055378;28;20052;-73
2021/12/15 04:01:13;;;;;;;9.75;8.75;;;;;;;18.56;40.11;102230.84;5055031;28;20045;-73
2021/12/15 04:03:44;;;;;;;9.82;8.70;;;;;;;18.57;40.04;102220.97;5055049;28;20048;-73
2021/12/15 04:06:18;;;;;;;10.00;9.05;;;;;;;18.57;39.93;102223.66;5055000;28;20052;-74
2021/12/15 04:08:47;;;;;;;9.25;8.35;;;;;;;18.56;40.10;102217.44;5055107;28;20180;-73
2021/12/15 04:11:19;;;;;;;10.02;8.35;;;;;;;18.56;40.15;102230.84;5055016;28;20382;-73
2021/12/15 04:13:47;;;;;;;9.25;8.25;;;;;;;18.56;39.94;102228.16;5053831;28;20040;-73
2021/12/15 04:19:06;;;;;;;9.23;7.95;;;;;;;18.56;39.98;102227.31;5054243;28;20052;-73
2021/12/15 04:21:36;;;;;;;9.02;8.07;;;;;;;18.56;39.73;102229.97;5054201;28;20052;-73
2021/12/15 04:24:04;;;;;;;9.43;8.00;;;;;;;18.54;40.00;102230.91;5054244;28;20052;-73
2021/12/15 04:26:32;;;;;;;9.27;8.35;;;;;;;18.55;39.89;102229.09;5054300;28;20047;-75
2021/12/15 04:29:00;;;;;;;9.38;8.43;;;;;;;18.54;39.93;102228.22;5054285;28;20384;-75
2021/12/15 04:31:31;;;;;;;9.80;8.35;;;;;;;18.54;39.92;102238.09;5054224;28;20412;-75
2021/12/15 04:34:04;;;;;;;9.48;8.02;;;;;;;18.53;39.90;102228.34;5054417;28;20037;-75
2021/12/15 04:36:37;;;;;;;10.65;8.10;;;;;;;18.54;39.83;102228.22;5054434;28;20416;-75
2021/12/15 04:39:07;;;;;;;9.20;8.15;;;;;;;18.52;39.61;102224.78;5054272;28;20052;-75
2021/12/15 04:41:34;;;;;;;9.77;8.13;;;;;;;18.52;39.66;102227.47;5052838;28;20045;-75
2021/12/15 04:44:11;;;;;;;8.32;7.45;;;;;;;18.52;39.80;102227.47;5036590;28;20408;-75
2021/12/15 04:46:58;;;;;;;9.48;8.40;;;;;;;18.52;39.71;102230.16;5053140;28;20473;-75
2021/12/15 04:49:30;;;;;;;9.00;7.40;;;;;;;18.52;39.80;102234.66;5052922;28;20053;-75
2021/12/15 04:51:59;;;;;;;8.90;7.18;;;;;;;18.52;39.88;102229.31;5053998;28;20049;-75
2021/12/15 04:54:28;;;;;;;9.68;8.43;;;;;;;18.51;39.83;102228.44;5053180;28;20048;-76
2021/12/15 04:56:56;;;;;;;8.25;7.25;;;;;;;18.51;39.64;102236.50;5053982;28;20357;-76
2021/12/15 04:59:23;;;;;;;8.75;7.90;;;;;;;18.51;39.79;102239.16;5054124;28;20067;-75
2021/12/15 05:01:51;;;;;;;9.30;8.25;;;;;;;18.50;39.75;102234.75;5053818;28;20049;-75
2021/12/15 05:04:19;;;;;;;7.82;7.07;;;;;;;18.51;39.65;102249.00;5054050;28;20143;-75
2021/12/15 05:06:46;;;;;;;8.13;6.75;;;;;;;18.50;39.60;102253.50;5053731;28;20049;-75
2021/12/15 05:09:14;;;;;;;10.05;7.28;;;;;;;18.50;39.75;102252.66;5053045;28;20045;-75
2021/12/15 05:11:42;;;;;;;7.32;6.57;;;;;;;18.49;39.74;102251.78;5085697;28;20049;-75
2021/12/15 05:14:10;;;;;;;8.95;7.38;;;;;;;18.49;39.65;102265.19;5053668;28;20044;-75
2021/12/15 05:16:37;;;;;;;8.15;7.00;;;;;;;18.48;39.56;102250.06;5053564;28;20044;-75
2021/12/15 05:19:05;;;;;;;7.50;6.30;;;;;;;18.49;39.75;102253.63;5053487;28;20056;-75
2021/12/15 05:21:32;;;;;;;7.50;6.70;;;;;;;18.48;39.70;102250.06;5053524;28;20049;-75
2021/12/15 05:24:08;;;;;;;7.32;6.63;;;;;;;18.48;39.75;102247.38;5053362;28;20044;-75
2021/12/15 05:26:36;;;;;;;8.88;7.43;;;;;;;18.48;39.62;102252.75;5053510;28;20400;-75
2021/12/15 05:29:03;;;;;;;8.07;7.28;;;;;;;18.47;39.66;102253.72;5053691;28;20045;-75
2021/12/15 05:31:31;;;;;;;8.38;7.50;;;;;;;18.47;39.72;102259.09;5053524;28;20041;-75
2021/12/15 05:34:02;;;;;;;9.88;7.43;;;;;;;18.48;39.62;102254.56;5053269;28;20041;-75
2021/12/15 05:36:29;;;;;;;8.35;7.38;;;;;;;18.47;39.62;102263.56;5053344;28;20052;-75
2021/12/15 05:38:57;;;;;;;7.90;7.10;;;;;;;18.47;39.58;102260.88;5053604;28;20045;-75
2021/12/15 05:41:25;;;;;;;9.57;7.38;;;;;;;18.47;39.61;102255.50;5052067;28;20425;-75
2021/12/15 05:43:52;;;;;;;7.00;6.30;;;;;;;18.47;39.50;102266.22;5053188;28;20049;-75
2021/12/15 05:46:19;;;;;;;8.50;6.93;;;;;;;18.47;39.61;102266.22;5053194;28;20056;-75
2021/12/15 05:48:47;;;;;;;7.63;6.78;;;;;;;18.46;39.61;102265.38;5053005;28;20052;-76
2021/12/15 05:51:15;;;;;;;7.53;6.82;;;;;;;18.46;39.66;102262.69;5052151;28;20060;-75
2021/12/15 05:53:43;;;;;;;8.85;7.28;;;;;;;18.46;39.91;102275.25;5053228;28;20049;-75
2021/12/15 05:56:12;;;;;;;8.75;7.32;;;;;;;18.45;39.75;102274.38;5051789;28;20497;-75
2021/12/15 05:58:40;;;;;;;9.55;6.43;;;;;;;18.44;39.88;102272.66;5053069;28;20045;-76
2021/12/15 06:01:07;;;;;;;6.97;6.28;;;;;;;18.45;39.82;102278.88;5053214;28;20052;-76
2021/12/15 06:03:35;;;;;;;6.95;6.25;;;;;;;18.44;39.82;102285.22;5053063;28;20041;-76
2021/12/15 06:06:02;;;;;;;7.85;6.78;;;;;;;18.43;39.81;102286.13;5053087;28;20045;-75
2021/12/15 06:08:30;;;;;;;7.10;6.40;;;;;;;18.43;39.76;102284.34;5053000;28;20048;-75
2021/12/15 06:10:57;;;;;;;7.45;6.50;;;;;;;18.43;39.65;102286.13;5053263;28;20484;-75
2021/12/15 06:13:27;;;;;;;8.00;7.07;;;;;;;18.42;39.57;102281.75;5053072;28;20053;-76
2021/12/15 06:15:57;;;;;;;8.80;6.75;;;;;;;18.42;39.65;102279.91;5052545;28;20044;-75
2021/12/15 06:18:25;;;;;;;7.88;6.78;;;;;;;18.42;39.56;102287.97;5051410;28;20401;-75
2021/12/15 06:20:54;;;;;;;8.05;7.25;;;;;;;18.42;39.51;102292.47;5054394;28;20056;-74
2021/12/15 06:23:22;;;;;;;8.55;7.65;;;;;;;18.41;39.32;102299.66;5056857;28;20049;-75
2021/12/15 06:25:56;;;;;;;7.28;6.47;;;;;;;18.40;39.46;102300.63;5056597;28;20055;-75
2021/12/15 06:28:28;;;;;;;8.27;6.68;;;;;;;18.40;39.40;102302.44;5056714;28;20044;-75
2021/12/15 06:30:57;;;;;;;8.13;6.68;;;;;;;18.39;39.41;102292.63;5056415;28;20056;-75
2021/12/15 06:33:28;;;;;;;8.05;6.57;;;;;;;18.39;39.54;102295.31;5056382;28;20440;-75
2021/12/15 06:35:58;;;;;;;9.00;6.47;;;;;;;18.40;39.31;102297.06;5056574;28;20469;-75
2021/12/15 06:38:30;;;;;;;8.93;6.40;;;;;;;18.40;39.36;102307.78;5056586;28;20056;-75
2021/12/15 06:40:58;;;;;;;10.20;7.00;;;;;;;18.38;39.25;102301.66;5056768;28;20045;-74
2021/12/15 06:43:26;;;;;;;7.47;6.78;;;;;;;18.38;39.34;102307.00;5056271;28;20064;-75
2021/12/15 06:46:21;;;;;;;7.35;6.65;;;;;;;18.37;39.37;102300.78;5056218;28;20049;-75
2021/12/15 06:58:11;;;;;;;7.70;6.55;;;;;;;18.36;39.39;102309.78;5055266;28;20053;-75
2021/12/15 07:00:10;;;;;;;7.55;6.78;;;;;;;18.36;39.28;102316.97;5047496;28;20053;-75
2021/12/15 07:02:39;;;;;;;8.05;6.53;;;;;;;18.35;39.05;102318.78;5056135;28;20045;-76
2021/12/15 07:05:08;;;;;;;7.47;6.40;;;;;;;18.36;39.33;102319.66;5054869;28;20049;-74
2021/12/15 07:07:37;;;;;;;6.93;6.03;;;;;;;18.35;39.28;102324.16;5056022;28;20052;-75
2021/12/15 07:10:06;;;;;;;7.00;6.30;;;;;;;18.34;39.38;102330.44;5056076;28;20049;-75
2021/12/15 07:12:34;;;;;;;7.72;6.22;;;;;;;18.34;39.26;102335.81;5056172;28;20052;-75
2021/12/15 07:15:02;;;;;;;7.32;5.70;;;;;;;18.35;39.27;102336.66;5056014;28;20049;-75
2021/12/15 07:17:30;;;;;;;7.82;6.03;;;;;;;18.34;39.40;102340.31;5054740;28;20057;-75
2021/12/15 07:22:37;;;;;;;7.50;6.70;;;;;;;18.33;39.29;102347.50;5055848;28;20044;-76
2021/12/15 07:25:06;;;;;;;7.63;6.25;;;;;;;18.33;39.29;102347.50;5055585;28;20049;-75
2021/12/15 07:27:33;;;;;;;7.35;6.25;;;;;;;18.33;39.48;102346.63;5055243;28;20044;-75
2021/12/15 07:30:03;;;;;;;7.70;6.68;;;;;;;18.33;39.38;102352.84;5038013;28;20056;-75
2021/12/15 07:32:30;;;;;;;7.50;6.80;;;;;;;18.33;39.39;102358.22;5054866;28;20049;-75
2021/12/15 07:34:57;;;;;;;8.60;5.88;;;;;;;18.32;39.48;102359.19;5055660;28;20056;-76
2021/12/15 07:37:25;;;;;;;8.15;6.35;;;;;;;18.32;39.53;102361.88;5055504;28;20052;-76
2021/12/15 07:39:59;;;;;;;7.63;6.68;;;;;;;18.32;39.29;102369.03;5055731;28;20049;-76
2021/12/15 07:42:42;;;;;;;6.97;6.28;;;;;;;18.32;39.65;102369.03;5055586;28;20056;-76
2021/12/15 07:45:20;;;;;;;6.20;5.50;;;;;;;18.31;39.66;102367.28;5054758;28;20056;-75
2021/12/15 07:47:48;;;;;;;7.82;5.80;;;;;;;18.31;39.87;102373.53;5055444;28;20044;-79
2021/12/15 07:50:19;;;;;;;13.23;11.50;;;;;;;18.15;36.81;102381.59;5054752;28;20045;-75
2021/12/15 07:52:47;;;;;;;13.35;7.43;;;;;;;18.08;40.28;102377.50;5054932;28;20480;-76
2021/12/15 07:55:15;;;;;;;8.05;6.10;;;;;;;18.08;40.72;102380.19;5053348;28;20045;-76
2021/12/15 07:57:43;;;;;;;9.55;5.97;;;;;;;18.12;40.80;102388.94;5052843;28;20107;-76
2021/12/15 08:00:13;;;;;;;7.88;6.05;;;;;;;18.14;40.98;102387.88;5054495;28;20044;-76
2021/12/15 08:02:41;;;;;;;12.07;7.32;;;;;;;18.16;41.19;102391.34;5054242;28;20036;-76
2021/12/15 08:05:09;;;;;;;9.07;6.85;;;;;;;18.19;41.40;102388.50;5054045;28;20041;-75
2021/12/15 08:07:37;;;;;;;9.98;6.18;;;;;;;18.21;41.41;102394.63;5053102;28;20428;-76
2021/12/15 08:10:09;;;;;;;9.82;6.25;;;;;;;18.23;41.60;102390.06;5054741;28;20049;-76
2021/12/15 08:12:41;;;;;;;7.40;6.00;;;;;;;18.25;41.59;102392.66;5054382;28;20057;-76
2021/12/15 08:15:10;;;;;;;8.47;5.50;;;;;;;18.26;41.06;102389.88;5052922;28;20056;-77
2021/12/15 08:17:39;;;;;;;10.32;6.35;;;;;;;18.26;40.79;102394.38;5054462;28;20045;-76
2021/12/15 08:20:11;;;;;;;8.57;6.72;;;;;;;18.26;40.72;102397.91;5054628;28;20082;-77
2021/12/15 08:22:39;;;;;;;11.07;8.00;;;;;;;18.27;39.99;102401.44;5054275;28;20396;-76
2021/12/15 08:25:09;;;;;;;9.30;7.25;;;;;;;18.26;40.09;102408.63;5052725;28;20045;-76
2021/12/15 08:27:37;;;;;;;16.02;11.80;;;;;;;18.24;37.84;102404.31;5054375;28;20400;-76
2021/12/15 08:30:09;;;;;;;14.65;11.98;;;;;;;18.22;36.53;102415.13;5054541;28;20590;-77
2021/12/15 08:32:38;;;;;;;16.45;12.90;;;;;;;18.18;35.81;102412.69;5054266;28;20045;-76
2021/12/15 08:35:07;;;;;;;20.77;13.63;;;;;;;18.15;35.61;102418.22;5053878;28;20045;-75
2021/12/15 08:37:34;;;;;;;14.00;11.60;;;;;;;18.13;37.98;102410.28;5052903;28;20045;-76
2021/12/15 08:40:03;;;;;;;19.95;11.40;;;;;;;18.15;38.54;102416.44;5054337;28;20048;-74
2021/12/15 08:42:31;;;;;;;14.30;10.38;;;;;;;18.17;39.00;102419.00;5052108;28;20060;-73
2021/12/15 08:44:59;;;;;;;13.07;11.10;;;;;;;18.18;39.21;102429.63;5052433;28;20072;-74
2021/12/15 08:47:27;;;;;;;10.75;9.65;;;;;;;18.18;39.39;102413.56;5036341;28;20044;-78
2021/12/15 08:49:55;;;;;;;9.32;8.32;;;;;;;18.20;39.64;102418.84;5070329;28;20053;-78
2021/12/15 08:52:23;;;;;;;14.60;9.43;;;;;;;18.22;39.57;102430.34;5054535;28;20451;-77
2021/12/15 08:54:51;;;;;;;13.18;8.13;;;;;;;18.23;39.78;102432.94;5053685;28;20439;-78
2021/12/15 08:57:19;;;;;;;10.27;8.68;;;;;;;18.26;39.75;102434.56;5068917;28;20089;-77
2021/12/15 08:59:46;;;;;;;12.65;8.23;;;;;;;18.28;39.82;102432.69;5052364;28;20060;-78
2021/12/15 09:02:14;;;;;;;10.57;7.78;;;;;;;18.28;40.07;102430.88;5052464;28;20041;-79
2021/12/15 09:04:41;;;;;;;9.60;7.00;;;;;;;18.29;40.09;102437.97;5053326;28;20044;-79
2021/12/15 09:07:09;;;;;;;9.40;7.13;;;;;;;18.31;40.15;102434.31;5053864;28;20049;-80
2021/12/15 09:09:36;;;;;;;11.40;7.10;;;;;;;18.30;40.13;102436.13;5053692;28;20075;-79
2021/12/15 09:12:04;;;;;;;8.93;7.35;;;;;;;18.32;40.26;102438.75;5053211;28;20515;-81
2021/12/15 09:14:32;;;;;;;8.35;7.15;;;;;;;18.32;40.41;102436.06;5053373;28;20048;-80
2021/12/15 09:17:01;;;;;;;11.02;7.05;;;;;;;18.34;40.63;102440.38;5052666;28;20393;-80
2021/12/15 09:19:30;;;;;;;8.40;6.80;;;;;;;18.34;40.31;102436.84;5053290;28;20045;-79
2021/12/15 09:21:58;;;;;;;9.15;7.40;;;;;;;18.34;40.52;102447.56;5053088;28;20400;-80
2021/12/15 09:24:26;;;;;;;10.15;7.82;;;;;;;18.36;40.40;102453.72;5053305;28;20056;-79
2021/12/15 09:26:55;;;;;;;9.07;6.82;;;;;;;18.35;40.46;102443.91;5053053;28;20039;-80
2021/12/15 09:29:24;;;;;;;7.18;6.35;;;;;;;18.35;40.58;102447.50;5053331;28;20056;-79
2021/12/15 09:31:53;;;;;;;11.60;7.07;;;;;;;18.36;40.58;102437.63;5053159;28;20045;-81
2021/12/15 09:34:21;;;;;;;8.82;6.43;;;;;;;18.36;40.63;102459.94;5051460;28;20060;-81
2021/12/15 09:36:51;;;;;;;11.35;7.00;;;;;;;18.36;40.83;102453.72;5052295;28;20480;-80
2021/12/15 09:39:21;;;;;;;9.07;6.53;;;;;;;18.36;40.62;102449.22;5053783;28;20045;-80
2021/12/15 09:41:50;;;;;;;7.30;6.60;;;;;;;18.37;40.64;102447.41;5052768;28;20049;-77
2021/12/15 09:44:22;;;;;;;10.23;7.10;;;;;;;18.38;40.71;102447.28;5051153;28;20049;-76
2021/12/15 10:19:51;;;;;;;8.32;6.32;;;;;;;18.43;40.92;102447.91;5034664;28;20057;-75
2021/12/15 10:22:50;;;;;;;9.23;6.75;;;;;;;18.42;40.81;102451.53;5034453;28;20057;-75
2021/12/15 10:25:24;;;;;;;10.95;8.52;;;;;;;18.40;40.34;102447.22;5034173;28;20060;-75
2021/12/15 10:27:53;;;;;;;8.85;7.95;;;;;;;18.41;40.42;102444.44;5034734;28;20045;-75
2021/12/15 10:30:28;;;;;;;8.57;7.72;;;;;;;18.41;40.62;102447.13;5034323;28;20061;-75
2021/12/15 10:33:06;;;;;;;9.55;8.20;;;;;;;18.41;40.36;102446.28;5034708;28;20072;-75
2021/12/15 10:36:03;;;;;;;9.32;7.57;;;;;;;18.39;40.47;102443.69;5034540;28;20061;-76
2021/12/15 10:38:41;;;;;;;8.68;7.78;;;;;;;18.39;40.61;102448.16;5017351;28;20509;-75
2021/12/15 10:41:26;;;;;;;10.52;8.48;;;;;;;18.38;40.44;102444.63;5034378;28;20053;-75
2021/12/15 10:43:58;;;;;;;9.63;8.60;;;;;;;18.38;40.43;102438.38;5034373;28;20049;-74
2021/12/15 10:46:30;;;;;;;10.37;8.47;;;;;;;18.38;40.81;102446.44;5033818;28;20493;-75
2021/12/15 10:49:05;;;;;;;8.97;8.00;;;;;;;18.38;40.48;102451.78;5034397;28;20643;-75
2021/12/15 10:51:55;;;;;;;11.20;8.18;;;;;;;18.39;40.39;102442.78;5034202;28;20053;-75
2021/12/15 10:54:35;;;;;;;11.90;7.65;;;;;;;18.41;40.57;102451.63;5035642;28;20845;-76
2021/12/15 10:57:32;;;;;;;14.18;7.60;;;;;;;18.41;40.61;102451.63;5056145;28;20048;-75
2021/12/15 11:00:00;;;;;;;12.07;7.88;;;;;;;18.40;40.91;102444.53;5014123;28;20065;-75
2021/12/15 11:02:38;;;;;;;7.93;7.22;;;;;;;18.39;40.82;102443.69;5014135;28;20065;-75
2021/12/15 11:05:09;;;;;;;9.15;8.15;;;;;;;18.39;40.65;102442.78;5013896;28;20057;-75
2021/12/15 11:07:48;;;;;;;11.55;7.57;;;;;;;18.39;40.75;102442.78;5012900;28;20053;-75
2021/12/15 11:10:26;;;;;;;9.68;8.35;;;;;;;18.39;40.69;102450.84;5014640;28;20050;-75
2021/12/15 11:12:57;;;;;;;9.27;7.63;;;;;;;18.38;40.55;102441.94;5015577;28;20056;-76
2021/12/15 11:15:28;;;;;;;11.70;8.35;;;;;;;18.38;40.53;102449.13;5013876;28;20102;-75
2021/12/15 11:18:10;;;;;;;9.98;8.20;;;;;;;18.38;40.64;102447.28;5014165;28;20073;-75
2021/12/15 11:20:46;;;;;;;11.25;7.78;;;;;;;18.39;40.86;102458.88;5013708;28;20049;-74
2021/12/15 11:23:15;;;;;;;9.50;7.28;;;;;;;18.38;40.70;102451.78;5013868;28;20049;-75
2021/12/15 11:25:49;;;;;;;12.55;8.18;;;;;;;18.38;40.55;102449.13;5013833;28;20053;-76
2021/12/15 11:28:21;;;;;;;12.20;8.20;;;;;;;18.37;40.80;102444.72;5013512;28;20046;-75
2021/12/15 11:31:06;;;;;;;14.00;8.00;;;;;;;18.38;40.86;102446.44;5013600;28;20442;-75
2021/12/15 11:33:39;;;;;;;8.70;7.72;;;;;;;18.37;40.72;102445.56;5013575;28;20490;-76
2021/12/15 11:36:15;;;;;;;9.38;7.57;;;;;;;18.37;40.85;102447.41;5017364;28;20057;-76
2021/12/15 11:38:58;;;;;;;10.38;7.75;;;;;;;18.36;40.77;102446.53;5055541;28;20048;-74
2021/12/15 11:41:34;;;;;;;9.43;8.48;;;;;;;18.38;41.04;102457.16;5055139;28;20069;-75
2021/12/15 11:44:28;;;;;;;9.93;7.40;;;;;;;18.39;40.98;102445.47;5055188;28;20049;-75
2021/12/15 11:47:01;;;;;;;9.65;8.25;;;;;;;18.38;40.88;102449.13;5053355;28;20057;-76
2021/12/15 11:49:29;;;;;;;;;;;;;;;18.38;40.82;102454.47;5055471;28;20045;-75
2021/12/15 11:52:06;;;;;;;8.52;7.72;;;;;;;18.38;40.94;102441.06;5053895;28;19925;-75
2021/12/15 11:54:44;;;;;;;11.30;8.20;;;;;;;18.38;41.06;102441.94;5053963;28;20049;-75
2021/12/15 11:57:16;;;;;;;12.40;7.85;;;;;;;18.38;40.99;102436.56;5054923;28;20481;-76
2021/12/15 11:59:49;;;;;;;9.43;7.47;;;;;;;18.39;40.95;102437.44;5055107;28;20488;-75
2021/12/15 12:02:21;;;;;;;10.73;7.95;;;;;;;18.39;41.03;102432.06;5054982;28;20048;-76
2021/12/15 12:05:03;;;;;;;19.75;17.63;;;;;;;18.35;39.28;102427.81;5053926;28;20056;-75
2021/12/15 12:07:38;;;;;;;11.05;8.48;;;;;;;18.32;41.90;102419.97;5054971;28;20045;-75
2021/12/15 12:10:19;;;;;;;9.48;8.55;;;;;;;18.31;42.12;102419.13;5053348;28;20072;-75
2021/12/15 12:13:02;;;;;;;9.70;7.95;;;;;;;18.32;41.88;102419.97;5053505;28;20056;-75
2021/12/15 12:15:32;;;;;;;8.63;7.60;;;;;;;18.34;41.54;102412.69;5053767;28;20437;-74
2021/12/15 12:18:05;;;;;;;7.93;7.13;;;;;;;18.36;41.36;102410.81;5054336;28;20040;-75
2021/12/15 12:20:39;;;;;;;8.80;7.82;;;;;;;18.36;41.32;102416.19;5054494;28;20381;-75
2021/12/15 12:23:09;;;;;;;9.32;7.28;;;;;;;18.36;41.42;102418.84;5054443;28;20086;-75
2021/12/15 12:25:46;;;;;;;9.18;7.63;;;;;;;18.37;41.11;102409.84;5054444;28;20500;-75
2021/12/15 12:28:20;;;;;;;10.45;8.02;;;;;;;18.37;41.22;102409.84;5054415;28;20041;-75
2021/12/15 12:30:59;;;;;;;8.43;7.35;;;;;;;18.37;41.13;102408.03;5054656;28;20060;-74
2021/12/15 12:33:28;;;;;;;8.07;7.22;;;;;;;18.38;41.25;102415.13;5053449;28;20055;-75
2021/12/15 12:36:02;;;;;;;8.25;7.32;;;;;;;18.38;41.30;102415.13;5054131;28;20071;-75
2021/12/15 12:38:33;;;;;;;8.80;7.38;;;;;;;18.37;41.36;102413.41;5054164;28;20045;-75
2021/12/15 12:41:03;;;;;;;8.70;7.88;;;;;;;18.38;40.94;102408.91;5054362;28;20056;-75
2021/12/15 12:43:40;;;;;;;9.43;7.35;;;;;;;18.37;41.31;102408.03;5053901;28;20060;-75
2021/12/15 12:46:28;;;;;;;9.95;7.10;;;;;;;18.37;41.46;102418.75;5050594;28;20053;-76
2021/12/15 12:49:33;;;;;;;10.38;7.43;;;;;;;18.38;41.51;102408.91;5053466;28;20350;-75
2021/12/15 13:00:41;;;;;;;9.63;7.65;;;;;;;18.39;43.26;102398.09;5053394;28;20052;-75
2021/12/15 13:03:17;;;;;;;9.25;7.82;;;;;;;18.39;44.46;102397.22;5053462;28;20056;-76
2021/12/15 13:05:50;;;;;;;10.52;8.48;;;;;;;18.38;45.34;102392.81;5052653;28;20060;-75
2021/12/15 13:08:29;;;;;;;11.07;8.32;;;;;;;18.37;46.16;102402.66;5051881;28;20378;-75
2021/12/15 13:11:21;;;;;;;9.38;8.48;;;;;;;18.36;46.64;102402.78;5053311;28;20140;-75
2021/12/15 13:13:51;;;;;;;9.77;7.68;;;;;;;18.34;47.22;102400.16;4995852;28;20061;-75
2021/12/15 13:16:36;;;;;;;9.95;8.88;;;;;;;18.34;47.78;102401.97;4995331;28;20058;-75